createdAt,value
2019-03-21T00:01:39.344Z,72.72
2019-03-21T00:04:11.230Z,73.72
2019-03-21T00:06:40.842Z,73.35
2019-03-21T00:09:12.240Z,73.94
2019-03-21T00:12:01.447Z,73.67
2019-03-21T00:14:46.119Z,73.48
2019-03-21T00:17:16.308Z,74.02
2019-03-21T00:19:45.671Z,73.75
2019-03-21T00:22:14.925Z,73.74
2019-03-21T00:24:44.597Z,73.43
2019-03-21T00:27:16.207Z,73.53
2019-03-21T00:29:45.484Z,73.54
2019-03-21T00:32:14.956Z,73.68
2019-03-21T00:34:44.548Z,73.91
2019-03-21T00:37:14.170Z,74.06
2019-03-21T00:39:43.875Z,73.72
2019-03-21T00:42:13.486Z,73.69
2019-03-21T00:44:42.875Z,73.37
2019-03-21T00:47:12.093Z,73.66
2019-03-21T00:49:41.335Z,73.76
2019-03-21T00:52:10.589Z,73.70
2019-03-21T00:54:39.800Z,73.68
2019-03-21T00:57:09.067Z,73.33
2019-03-21T00:59:38.594Z,73.40
2019-03-21T01:02:07.852Z,73.21
2019-03-21T01:04:37.117Z,73.58
2019-03-21T01:07:07.019Z,73.18
2019-03-21T01:09:36.625Z,73.29
2019-03-21T01:12:05.891Z,73.79
2019-03-21T01:14:35.143Z,73.82
2019-03-21T01:17:04.382Z,74.20
2019-03-21T01:19:33.913Z,74.16
2019-03-21T01:22:03.540Z,74.03
2019-03-21T01:24:32.749Z,73.93
2019-03-21T01:27:01.980Z,73.76
2019-03-21T01:29:31.213Z,74.40
2019-03-21T01:32:00.439Z,74.12
2019-03-21T01:34:29.965Z,73.68
2019-03-21T01:36:59.206Z,72.83
2019-03-21T01:39:28.443Z,73.44
2019-03-21T01:41:58.021Z,73.20
2019-03-21T01:44:27.878Z,72.42
2019-03-21T01:46:57.435Z,72.24
2019-03-21T01:49:26.667Z,72.44
2019-03-21T01:51:55.897Z,73.36
2019-03-21T01:54:25.136Z,72.96
2019-03-21T01:56:54.397Z,73.00
2019-03-21T01:59:23.635Z,72.99
2019-03-21T02:01:53.460Z,72.55
2019-03-21T02:04:23.057Z,72.36
2019-03-21T02:06:52.294Z,72.22
2019-03-21T02:09:21.530Z,71.68
2019-03-21T02:11:50.757Z,71.07
2019-03-21T02:14:20.007Z,70.80
2019-03-21T02:16:49.240Z,71.12
2019-03-21T02:19:18.466Z,70.60
2019-03-21T02:21:47.711Z,70.61
2019-03-21T02:24:16.961Z,71.17
2019-03-21T02:26:46.579Z,71.10
2019-03-21T02:29:15.778Z,70.76
2019-03-21T02:31:45.010Z,70.24
2019-03-21T02:34:14.257Z,70.87
2019-03-21T02:36:44.662Z,70.64
2019-03-21T02:39:13.882Z,70.87
2019-03-21T02:41:43.473Z,70.72
2019-03-21T02:44:12.691Z,70.87
2019-03-21T02:46:41.952Z,71.03
2019-03-21T02:49:11.480Z,71.20
2019-03-21T02:51:40.719Z,70.71
2019-03-21T02:54:09.967Z,70.71
2019-03-21T02:56:39.572Z,70.77
2019-03-21T02:59:09.097Z,70.97
2019-03-21T03:01:39.057Z,70.80
2019-03-21T03:04:10.889Z,70.77
2019-03-21T03:06:40.155Z,70.39
2019-03-21T03:09:10.035Z,70.78
2019-03-21T03:11:39.584Z,70.62
2019-03-21T03:14:08.797Z,70.73
2019-03-21T03:16:38.413Z,70.67
2019-03-21T03:19:07.996Z,70.87
2019-03-21T03:21:37.225Z,70.97
2019-03-21T03:24:07.826Z,71.10
2019-03-21T03:26:37.081Z,71.69
2019-03-21T03:29:06.378Z,71.38
2019-03-21T03:31:35.866Z,70.60
2019-03-21T03:34:05.273Z,70.63
2019-03-21T03:36:34.461Z,70.67
2019-03-21T03:39:05.536Z,70.88
2019-03-21T03:41:34.757Z,70.29
2019-03-21T03:44:04.079Z,70.30
2019-03-21T03:46:33.325Z,70.47
2019-03-21T03:49:03.162Z,70.37
2019-03-21T03:51:32.394Z,70.73
2019-03-21T03:54:02.281Z,71.28
2019-03-21T03:56:31.846Z,71.12
2019-03-21T03:59:01.716Z,71.29
2019-03-21T04:01:30.944Z,71.06
2019-03-21T04:04:00.302Z,71.35
2019-03-21T04:06:29.521Z,71.40
2019-03-21T04:08:58.741Z,71.21
2019-03-21T04:11:28.031Z,71.40
2019-03-21T04:14:00.598Z,71.85
2019-03-21T04:16:29.867Z,72.13
2019-03-21T04:18:59.032Z,71.77
2019-03-21T04:21:28.247Z,71.97
2019-03-21T04:23:59.813Z,72.46
2019-03-21T04:26:30.294Z,73.10
2019-03-21T04:28:59.584Z,73.60
2019-03-21T04:31:28.802Z,73.64
2019-03-21T04:34:00.143Z,73.56
2019-03-21T04:36:29.664Z,73.61
2019-03-21T04:38:58.919Z,73.58
2019-03-21T04:41:28.317Z,73.45
2019-03-21T04:43:57.558Z,73.43
2019-03-21T04:46:26.802Z,73.93
2019-03-21T04:48:56.003Z,74.29
2019-03-21T04:51:25.243Z,74.24
2019-03-21T04:53:54.454Z,74.48
2019-03-21T04:56:25.273Z,75.08
2019-03-21T04:58:54.842Z,74.36
2019-03-21T05:01:26.686Z,74.23
2019-03-21T05:03:55.914Z,74.03
2019-03-21T05:06:25.532Z,73.86
2019-03-21T05:08:54.749Z,73.66
2019-03-21T05:11:24.579Z,72.98
2019-03-21T05:13:53.863Z,72.28
2019-03-21T05:16:23.372Z,72.14
2019-03-21T05:18:53.453Z,71.99
2019-03-21T05:21:22.752Z,71.70
2019-03-21T05:23:51.990Z,72.08
2019-03-21T05:26:21.534Z,71.61
2019-03-21T05:28:51.271Z,72.12
2019-03-21T05:31:24.041Z,72.28
2019-03-21T05:33:53.599Z,72.44
2019-03-21T05:36:22.939Z,72.26
2019-03-21T05:38:52.155Z,72.38
2019-03-21T05:41:21.461Z,72.01
2019-03-21T05:43:54.024Z,72.34
2019-03-21T05:46:26.872Z,72.94
2019-03-21T05:48:54.515Z,73.32
2019-03-21T05:51:23.750Z,73.43
2019-03-21T05:53:53.665Z,73.51
2019-03-21T05:56:23.478Z,73.32
2019-03-21T05:58:53.602Z,72.85
2019-03-21T06:01:22.805Z,72.34
2019-03-21T06:03:52.487Z,73.03
2019-03-21T06:06:28.995Z,73.01
2019-03-21T06:08:58.251Z,72.39
2019-03-21T06:11:27.505Z,72.07
2019-03-21T06:13:58.898Z,72.26
2019-03-21T06:16:37.305Z,71.98
2019-03-21T06:19:16.192Z,72.28
2019-03-21T06:22:24.023Z,72.31
2019-03-21T06:25:24.556Z,71.84
2019-03-21T06:27:53.767Z,72.04
2019-03-21T06:30:23.003Z,72.17
2019-03-21T06:32:52.595Z,72.18
2019-03-21T06:35:24.970Z,72.02
2019-03-21T06:37:54.376Z,72.64
2019-03-21T06:40:23.609Z,72.82
2019-03-21T06:42:52.847Z,73.63
2019-03-21T06:45:22.111Z,73.55
2019-03-21T06:47:53.178Z,72.76
2019-03-21T06:50:22.557Z,72.53
2019-03-21T06:52:51.777Z,72.02
2019-03-21T06:55:21.001Z,71.54
2019-03-21T06:57:50.589Z,71.58
2019-03-21T07:00:19.878Z,71.63
2019-03-21T07:02:49.727Z,71.31
2019-03-21T07:05:18.996Z,71.32
2019-03-21T07:07:48.295Z,71.66
2019-03-21T07:10:17.446Z,71.98
2019-03-21T07:12:46.672Z,72.33
2019-03-21T07:15:16.330Z,72.44
2019-03-21T07:17:45.551Z,72.53
2019-03-21T07:20:14.934Z,72.51
2019-03-21T07:22:44.167Z,71.84
2019-03-21T07:25:13.576Z,72.33
2019-03-21T07:27:42.803Z,72.29
2019-03-21T07:30:13.367Z,71.98
2019-03-21T07:32:42.614Z,71.52
2019-03-21T07:35:12.013Z,71.87
2019-03-21T07:37:41.257Z,71.98
2019-03-21T07:40:11.584Z,72.22
2019-03-21T07:42:41.063Z,72.23
2019-03-21T07:45:10.754Z,72.23
2019-03-21T07:47:40.045Z,72.69
2019-03-21T07:50:11.032Z,72.68
2019-03-21T07:52:40.351Z,71.57
2019-03-21T07:55:10.167Z,70.68
2019-03-21T07:57:39.400Z,69.75
2019-03-21T08:00:11.140Z,69.16
2019-03-21T08:02:40.809Z,68.56
2019-03-21T08:05:11.003Z,68.94
2019-03-21T08:07:40.231Z,68.23
2019-03-21T08:10:10.042Z,68.65
2019-03-21T08:12:39.547Z,68.72
2019-03-21T08:15:09.491Z,68.16
2019-03-21T08:17:38.742Z,68.20
2019-03-21T08:20:09.845Z,68.44
2019-03-21T08:22:39.512Z,67.95
2019-03-21T08:25:10.348Z,67.90
2019-03-21T08:27:39.933Z,67.18
2019-03-21T08:30:13.556Z,66.72
2019-03-21T08:32:43.171Z,66.76
2019-03-21T08:35:12.468Z,67.12
2019-03-21T08:37:41.961Z,67.12
2019-03-21T08:40:12.979Z,67.39
2019-03-21T08:42:42.257Z,66.31
2019-03-21T08:45:11.740Z,65.74
2019-03-21T08:47:40.951Z,66.48
2019-03-21T08:50:10.418Z,66.00
2019-03-21T08:52:39.627Z,66.22
2019-03-21T08:55:09.551Z,66.24
2019-03-21T08:57:39.125Z,65.90
2019-03-21T09:00:09.257Z,66.11
2019-03-21T09:02:38.472Z,65.22
2019-03-21T09:05:08.056Z,66.56
2019-03-21T09:07:37.271Z,66.58
2019-03-21T09:10:08.095Z,66.11
2019-03-21T09:12:37.387Z,64.54
2019-03-21T09:15:08.159Z,64.42
2019-03-21T09:17:37.823Z,64.17
2019-03-21T09:20:07.185Z,65.24
2019-03-21T09:22:36.516Z,65.05
2019-03-21T09:25:06.774Z,63.89
2019-03-21T09:27:36.086Z,64.39
2019-03-21T09:30:07.122Z,63.83
2019-03-21T09:32:36.659Z,63.04
2019-03-21T09:35:06.915Z,65.08
2019-03-21T09:37:36.139Z,65.40
2019-03-21T09:40:06.657Z,65.07
2019-03-21T09:42:36.207Z,63.99
2019-03-21T09:45:06.567Z,63.71
2019-03-21T09:47:35.807Z,63.38
2019-03-21T09:50:05.492Z,63.39
2019-03-21T09:52:34.708Z,63.58
2019-03-21T09:55:04.036Z,63.54
2019-03-21T09:57:33.261Z,62.88
2019-03-21T10:00:02.899Z,63.56
2019-03-21T10:02:32.504Z,64.47
2019-03-21T10:05:01.743Z,63.47
2019-03-21T10:07:30.948Z,63.06
2019-03-21T10:10:00.390Z,62.63
2019-03-21T10:12:30.500Z,64.44
2019-03-21T10:14:59.967Z,61.94
2019-03-21T10:17:29.532Z,61.36
2019-03-21T10:19:58.753Z,63.42
2019-03-21T10:22:27.970Z,62.02
2019-03-21T10:24:57.199Z,61.66
2019-03-21T10:27:26.425Z,62.09
2019-03-21T10:29:55.658Z,60.14
2019-03-21T10:32:24.881Z,60.60
2019-03-21T10:34:54.090Z,60.15
2019-03-21T10:37:23.304Z,61.68
2019-03-21T10:39:52.522Z,60.17
2019-03-21T10:42:21.734Z,60.46
2019-03-21T10:44:50.955Z,59.84
2019-03-21T10:47:20.521Z,60.40
2019-03-21T10:49:49.776Z,59.03
2019-03-21T10:52:18.991Z,60.96
2019-03-21T10:54:48.224Z,59.84
2019-03-21T10:57:17.445Z,60.29
2019-03-21T10:59:46.916Z,59.64
2019-03-21T11:02:16.150Z,59.49
2019-03-21T11:04:45.367Z,59.71
2019-03-21T11:07:12.717Z,60.43
2019-03-21T11:09:41.931Z,59.43
2019-03-21T11:12:11.405Z,59.51
2019-03-21T11:14:40.632Z,58.13
2019-03-21T11:17:09.864Z,58.95
2019-03-21T11:19:39.326Z,58.99
2019-03-21T11:22:08.553Z,60.21
2019-03-21T11:24:38.013Z,58.39
2019-03-21T11:27:07.267Z,60.55
2019-03-21T11:29:36.742Z,57.45
2019-03-21T11:32:05.975Z,56.59
2019-03-21T11:34:35.450Z,59.41
2019-03-21T11:37:05.302Z,57.75
2019-03-21T11:39:34.997Z,56.73
2019-03-21T11:42:04.572Z,57.90
2019-03-21T11:44:33.783Z,57.90
2019-03-21T11:47:02.997Z,57.20
2019-03-21T11:49:32.465Z,55.92
2019-03-21T11:52:01.941Z,56.12
2019-03-21T11:54:31.429Z,56.21
2019-03-21T11:57:00.662Z,56.65
2019-03-21T11:59:41.639Z,56.44
2019-03-21T12:02:03.292Z,54.60
2019-03-21T12:04:34.194Z,54.94
2019-03-21T12:07:03.442Z,55.96
2019-03-21T12:09:32.655Z,56.02
2019-03-21T12:12:02.197Z,54.82
2019-03-21T12:14:31.498Z,55.91
2019-03-21T12:17:00.719Z,55.36
2019-03-21T12:19:30.226Z,54.64
2019-03-21T12:21:59.450Z,53.88
2019-03-21T12:24:29.030Z,53.15
2019-03-21T12:26:58.557Z,53.13
2019-03-21T12:29:27.773Z,54.47
2019-03-21T12:31:57.235Z,54.03
2019-03-21T12:34:26.703Z,53.09
2019-03-21T12:36:55.939Z,54.65
2019-03-21T12:39:25.158Z,53.23
2019-03-21T12:41:54.656Z,52.65
2019-03-21T12:44:23.878Z,52.82
2019-03-21T12:46:53.152Z,54.12
2019-03-21T12:49:22.722Z,52.76
2019-03-21T12:51:52.010Z,52.68
2019-03-21T12:54:21.243Z,52.33
2019-03-21T12:56:52.945Z,52.98
2019-03-21T12:59:21.527Z,52.56
2019-03-21T13:01:51.049Z,53.16
2019-03-21T13:04:20.292Z,53.35
2019-03-21T13:06:49.791Z,53.18
2019-03-21T13:09:19.031Z,51.92
2019-03-21T13:11:48.297Z,51.58
2019-03-21T13:14:17.586Z,52.31
2019-03-21T13:16:47.060Z,51.74
2019-03-21T13:19:16.293Z,52.33
2019-03-21T13:21:45.815Z,52.27
2019-03-21T13:24:18.320Z,52.68
2019-03-21T13:26:46.382Z,51.51
2019-03-21T13:29:15.629Z,52.29
2019-03-21T13:31:45.168Z,52.00
2019-03-21T13:34:14.405Z,51.65
2019-03-21T13:36:43.648Z,52.15
2019-03-21T13:39:16.556Z,51.06
2019-03-21T13:41:45.778Z,51.22
2019-03-21T13:44:15.287Z,51.67
2019-03-21T13:46:44.536Z,51.01
2019-03-21T13:49:13.779Z,51.05
2019-03-21T13:51:43.014Z,51.40
2019-03-21T13:54:12.245Z,52.16
2019-03-21T13:56:41.498Z,52.60
2019-03-21T13:59:10.753Z,50.98
2019-03-21T14:01:40.245Z,53.04
2019-03-21T14:04:09.478Z,50.98
2019-03-21T14:06:38.780Z,50.53
2019-03-21T14:09:08.720Z,51.58
2019-03-21T14:11:37.964Z,51.92
2019-03-21T14:14:07.891Z,51.81
2019-03-21T14:16:37.125Z,52.30
2019-03-21T14:19:06.593Z,50.39
2019-03-21T14:21:35.845Z,50.75
2019-03-21T14:24:05.142Z,49.43
2019-03-21T14:26:34.374Z,49.98
2019-03-21T14:29:12.137Z,49.50
2019-03-21T14:31:34.560Z,51.10
2019-03-21T14:34:03.852Z,51.70
2019-03-21T14:36:33.159Z,50.51
2019-03-21T14:39:02.414Z,52.17
2019-03-21T14:41:31.639Z,51.24
2019-03-21T14:44:01.378Z,51.31
2019-03-21T14:46:30.934Z,49.64
2019-03-21T14:49:03.079Z,49.97
2019-03-21T14:51:34.401Z,50.97
2019-03-21T14:54:03.619Z,51.02
2019-03-21T14:56:32.860Z,50.66
2019-03-21T14:59:02.095Z,51.79
2019-03-21T15:01:31.354Z,51.51
2019-03-21T15:04:00.587Z,51.23
2019-03-21T15:06:30.081Z,51.59
2019-03-21T15:08:59.559Z,51.24
2019-03-21T15:11:29.157Z,51.41
2019-03-21T15:13:58.613Z,51.04
2019-03-21T15:16:27.864Z,51.08
2019-03-21T15:18:57.373Z,51.72
2019-03-21T15:21:26.683Z,51.03
2019-03-21T15:23:59.599Z,51.29
2019-03-21T15:26:27.121Z,50.93
2019-03-21T15:28:56.360Z,51.20
2019-03-21T15:31:25.612Z,50.12
2019-03-21T15:33:54.840Z,51.82
2019-03-21T15:36:24.072Z,52.03
2019-03-21T15:38:53.904Z,51.64
2019-03-21T15:41:23.962Z,51.52
2019-03-21T15:43:53.428Z,52.07
2019-03-21T15:46:22.759Z,51.90
2019-03-21T15:48:52.209Z,51.21
2019-03-21T15:51:21.692Z,50.63
2019-03-21T15:53:56.063Z,50.45
2019-03-21T15:56:22.502Z,50.60
2019-03-21T15:58:52.222Z,51.64
2019-03-21T16:01:21.475Z,51.50
2019-03-21T16:03:50.677Z,52.85
2019-03-21T16:06:20.425Z,52.31
2019-03-21T16:08:50.270Z,52.39
2019-03-21T16:11:19.555Z,52.52
2019-03-21T16:13:49.133Z,53.30
2019-03-21T16:16:18.382Z,53.69
2019-03-21T16:18:47.931Z,53.84
2019-03-21T16:21:17.436Z,52.28
2019-03-21T16:23:47.218Z,53.17
2019-03-21T16:26:16.699Z,52.74
2019-03-21T16:28:46.218Z,51.64
2019-03-21T16:31:15.705Z,50.71
2019-03-21T16:33:45.226Z,50.65
2019-03-21T16:36:15.125Z,50.52
2019-03-21T16:38:44.763Z,50.77
2019-03-21T16:41:14.024Z,50.66
2019-03-21T16:43:44.601Z,50.12
2019-03-21T16:46:13.834Z,50.03
2019-03-21T16:48:43.083Z,49.84
2019-03-21T16:51:12.588Z,50.12
2019-03-21T16:53:43.910Z,51.20
2019-03-21T16:56:13.623Z,52.34
2019-03-21T16:58:42.890Z,53.54
2019-03-21T17:01:12.406Z,54.13
2019-03-21T17:03:41.652Z,54.61
2019-03-21T17:06:13.795Z,55.23
2019-03-21T17:08:43.269Z,55.33
2019-03-21T17:11:12.541Z,55.63
2019-03-21T17:13:42.219Z,55.85
2019-03-21T17:16:11.492Z,55.71
2019-03-21T17:18:42.297Z,56.31
2019-03-21T17:21:11.526Z,58.56
2019-03-21T17:23:40.780Z,57.54
2019-03-21T17:26:10.292Z,57.90
2019-03-21T17:28:40.115Z,58.55
2019-03-21T17:31:09.654Z,58.22
2019-03-21T17:33:39.052Z,57.83
2019-03-21T17:36:08.328Z,58.17
2019-03-21T17:38:37.830Z,58.34
2019-03-21T17:41:07.159Z,58.54
2019-03-21T17:43:36.493Z,58.31
2019-03-21T17:46:06.734Z,58.38
2019-03-21T17:48:36.239Z,58.44
2019-03-21T17:51:05.805Z,58.42
2019-03-21T17:53:35.048Z,59.01
2019-03-21T17:56:04.717Z,59.48
2019-03-21T17:58:34.201Z,59.38
2019-03-21T18:01:03.448Z,59.33
2019-03-21T18:03:32.745Z,58.91
2019-03-21T18:06:01.968Z,59.25
2019-03-21T18:08:31.577Z,58.64
2019-03-21T18:11:00.795Z,58.86
2019-03-21T18:13:30.068Z,59.05
2019-03-21T18:15:59.295Z,59.61
2019-03-21T18:18:28.879Z,59.99
2019-03-21T18:20:58.115Z,60.74
2019-03-21T18:23:27.405Z,61.35
2019-03-21T18:25:56.687Z,61.43
2019-03-21T18:28:26.285Z,61.96
2019-03-21T18:30:56.265Z,62.46
2019-03-21T18:33:26.002Z,62.79
2019-03-21T18:35:55.221Z,63.52
2019-03-21T18:38:24.987Z,63.85
2019-03-21T18:40:54.339Z,64.03
2019-03-21T18:43:24.117Z,64.01
2019-03-21T18:45:54.127Z,64.24
2019-03-21T18:48:23.639Z,64.40
2019-03-21T18:50:52.922Z,64.79
2019-03-21T18:53:22.152Z,65.04
2019-03-21T18:55:51.368Z,65.45
2019-03-21T18:58:20.878Z,66.02
2019-03-21T19:00:50.759Z,66.65
2019-03-21T19:03:20.261Z,66.70
2019-03-21T19:05:49.484Z,66.69
2019-03-21T19:08:19.248Z,66.51
2019-03-21T19:10:48.460Z,66.95
2019-03-21T19:13:17.698Z,66.96
2019-03-21T19:15:47.036Z,67.24
2019-03-21T19:18:16.276Z,67.77
2019-03-21T19:20:45.667Z,67.82
2019-03-21T19:23:15.170Z,67.59
2019-03-21T19:25:44.736Z,67.69
2019-03-21T19:28:13.975Z,67.27
2019-03-21T19:30:43.187Z,67.47
2019-03-21T19:33:12.548Z,66.87
2019-03-21T19:35:42.875Z,67.12
2019-03-21T19:38:12.405Z,67.46
2019-03-21T19:40:42.680Z,67.82
2019-03-21T19:43:11.925Z,68.09
2019-03-21T19:45:41.428Z,68.00
2019-03-21T19:48:10.732Z,67.43
2019-03-21T19:50:39.952Z,67.72
2019-03-21T19:53:09.454Z,68.45
2019-03-21T19:55:39.175Z,68.84
2019-03-21T19:58:08.677Z,68.30
2019-03-21T20:00:38.232Z,68.30
2019-03-21T20:03:07.518Z,68.36
2019-03-21T20:05:37.640Z,68.65
2019-03-21T20:08:06.872Z,68.90
2019-03-21T20:10:36.357Z,68.76
2019-03-21T20:13:05.689Z,68.84
2019-03-21T20:15:34.930Z,69.69
2019-03-21T20:18:04.297Z,69.47
2019-03-21T20:20:33.553Z,69.18
2019-03-21T20:23:04.214Z,69.74
2019-03-21T20:25:42.233Z,69.31
2019-03-21T20:28:08.638Z,69.51
2019-03-21T20:30:37.988Z,69.99
2019-03-21T20:33:07.853Z,70.26
2019-03-21T20:35:37.242Z,70.24
2019-03-21T20:38:07.569Z,70.19
2019-03-21T20:40:39.051Z,70.44
2019-03-21T20:43:08.044Z,70.53
2019-03-21T20:45:37.347Z,70.54
2019-03-21T20:48:06.911Z,70.35
2019-03-21T20:50:36.459Z,71.01
2019-03-21T20:53:05.758Z,70.99
2019-03-21T20:55:35.118Z,70.37
2019-03-21T20:58:04.530Z,70.32
2019-03-21T21:00:34.592Z,70.66
2019-03-21T21:03:04.203Z,70.88
2019-03-21T21:05:33.832Z,70.75
2019-03-21T21:08:03.169Z,71.84
2019-03-21T21:10:32.720Z,72.38
2019-03-21T21:13:01.992Z,72.48
2019-03-21T21:15:31.257Z,72.30
2019-03-21T21:18:00.773Z,72.28
2019-03-21T21:20:30.234Z,72.20
2019-03-21T21:22:59.456Z,72.41
2019-03-21T21:25:30.254Z,72.88
2019-03-21T21:27:59.483Z,72.91
2019-03-21T21:30:28.795Z,72.85
2019-03-21T21:32:58.098Z,72.22
2019-03-21T21:35:27.369Z,72.96
2019-03-21T21:37:56.649Z,72.59
2019-03-21T21:40:25.881Z,72.06
2019-03-21T21:42:55.374Z,72.72
2019-03-21T21:45:27.154Z,72.53
2019-03-21T21:47:56.733Z,72.05
2019-03-21T21:50:25.969Z,72.20
2019-03-21T21:52:55.537Z,72.44
2019-03-21T21:55:24.767Z,73.48
2019-03-21T21:57:56.626Z,73.41
2019-03-21T22:00:27.136Z,73.51
2019-03-21T22:02:56.403Z,73.21
2019-03-21T22:05:25.969Z,72.97
2019-03-21T22:07:55.333Z,72.57
2019-03-21T22:10:24.636Z,72.77
2019-03-21T22:12:56.889Z,74.06
2019-03-21T22:15:26.661Z,74.63
2019-03-21T22:17:56.144Z,74.64
2019-03-21T22:20:25.452Z,73.62
2019-03-21T22:22:54.698Z,73.62
2019-03-21T22:25:25.751Z,74.26
2019-03-21T22:27:55.224Z,73.81
2019-03-21T22:30:25.542Z,74.59
2019-03-21T22:32:54.865Z,74.59
2019-03-21T22:35:24.562Z,74.82
2019-03-21T22:37:54.166Z,74.63
2019-03-21T22:40:24.075Z,74.93
2019-03-21T22:42:53.294Z,74.93
2019-03-21T22:45:22.926Z,75.07
2019-03-21T22:47:52.193Z,74.62
2019-03-21T22:50:21.503Z,75.02
2019-03-21T22:52:50.823Z,75.02
2019-03-21T22:55:20.278Z,75.06
2019-03-21T22:57:51.764Z,74.84
2019-03-21T23:00:22.288Z,74.54
2019-03-21T23:02:51.583Z,74.47
2019-03-21T23:05:21.069Z,74.64
2019-03-21T23:07:50.542Z,74.64
2019-03-21T23:10:20.114Z,74.64
2019-03-21T23:12:49.360Z,73.92
2019-03-21T23:15:18.812Z,74.15
2019-03-21T23:17:48.362Z,74.01
2019-03-21T23:20:17.733Z,74.10
2019-03-21T23:22:46.958Z,74.80
2019-03-21T23:25:16.942Z,74.80
2019-03-21T23:27:46.507Z,75.13
2019-03-21T23:30:15.957Z,75.21
2019-03-21T23:32:45.332Z,75.28
2019-03-21T23:35:14.941Z,75.28
2019-03-21T23:37:44.316Z,75.70
2019-03-21T23:40:13.727Z,75.85
2019-03-21T23:42:43.273Z,75.73
2019-03-21T23:45:15.297Z,76.33
2019-03-21T23:47:44.646Z,76.33
2019-03-21T23:50:14.078Z,75.96
2019-03-21T23:52:43.760Z,76.05
2019-03-21T23:55:13.277Z,76.52
2019-03-21T23:57:42.820Z,76.39
